createdAt,value
2023-01-21T00:00:58.619Z,101365.56
2023-01-21T00:03:25.367Z,101362.00
2023-01-21T00:05:52.083Z,101368.91
2023-01-21T00:08:18.730Z,101375.56
2023-01-21T00:10:45.550Z,101372.91
2023-01-21T00:13:12.194Z,101377.16
2023-01-21T00:15:38.850Z,101380.66
2023-01-21T00:18:07.707Z,101382.41
2023-01-21T00:20:34.609Z,101380.84
2023-01-21T00:23:01.232Z,101394.56
2023-01-21T00:25:27.848Z,101399.84
2023-01-21T00:27:54.421Z,101394.03
2023-01-21T00:30:21.058Z,101389.84
2023-01-21T00:32:47.727Z,101406.97
2023-01-21T00:35:14.604Z,101404.53
2023-01-21T00:37:41.933Z,101405.31
2023-01-21T00:40:10.014Z,101416.41
2023-01-21T00:42:36.619Z,101412.19
2023-01-21T00:45:03.559Z,101413.94
2023-01-21T00:47:30.094Z,101414.91
2023-01-21T00:49:56.813Z,101419.22
2023-01-21T00:52:23.400Z,101415.88
2023-01-21T00:54:49.920Z,101422.75
2023-01-21T00:57:16.560Z,101424.50
2023-01-21T00:59:43.211Z,101420.41
2023-01-21T01:02:10.738Z,101420.44
2023-01-21T01:04:37.395Z,101422.16
2023-01-21T01:07:04.339Z,101427.25
2023-01-21T01:09:31.281Z,101422.16
2023-01-21T01:11:57.913Z,101430.75
2023-01-21T01:14:24.874Z,101430.75
2023-01-21T01:16:51.709Z,101435.09
2023-01-21T01:19:18.750Z,101428.19
2023-01-21T01:21:45.329Z,101425.56
2023-01-21T01:24:11.918Z,101429.63
2023-01-21T01:26:39.525Z,101444.94
2023-01-21T01:29:07.939Z,101446.44
2023-01-21T01:31:34.630Z,101445.44
2023-01-21T01:34:01.256Z,101441.94
2023-01-21T01:36:27.874Z,101450.25
2023-01-21T01:38:54.505Z,101441.56
2023-01-21T01:41:25.560Z,101443.81
2023-01-21T01:46:36.015Z,101453.84
2023-01-21T01:54:24.642Z,101464.69
2023-01-21T01:56:56.401Z,101465.41
2023-01-21T01:59:23.353Z,101464.13
2023-01-21T02:01:50.124Z,101472.47
2023-01-21T02:04:23.088Z,101467.09
2023-01-21T02:06:52.190Z,101477.09
2023-01-21T02:09:18.946Z,101471.81
2023-01-21T02:11:45.618Z,101476.72
2023-01-21T02:14:12.382Z,101471.41
2023-01-21T02:17:13.072Z,101476.34
2023-01-21T02:31:10.351Z,101494.19
2023-01-21T02:44:25.028Z,101496.06
2023-01-21T02:47:02.899Z,101499.41
2023-01-21T02:52:20.900Z,101504.09
2023-01-21T02:54:51.657Z,101508.09
2023-01-21T02:57:20.331Z,101504.16
2023-01-21T02:59:50.847Z,101503.22
2023-01-21T03:08:09.796Z,101515.53
2023-01-21T03:10:45.246Z,101516.22
2023-01-21T03:13:55.378Z,101515.16
2023-01-21T03:16:48.455Z,101522.00
2023-01-21T03:19:18.572Z,101523.75
2023-01-21T03:21:47.270Z,101522.84
2023-01-21T03:24:15.023Z,101519.34
2023-01-21T03:26:47.844Z,101528.63
2023-01-21T03:29:19.579Z,101529.44
2023-01-21T03:31:51.817Z,101531.88
2023-01-21T03:34:19.879Z,101530.91
2023-01-21T03:42:22.819Z,101541.13
2023-01-21T03:44:49.617Z,101544.25
2023-01-21T03:52:42.371Z,101535.13
2023-01-21T03:55:10.576Z,101538.34
2023-01-21T03:57:37.249Z,101543.22
2023-01-21T04:00:05.916Z,101543.22
2023-01-21T04:02:32.812Z,101546.56
2023-01-21T04:04:59.428Z,101549.88
2023-01-21T04:07:26.030Z,101549.13
2023-01-21T04:09:52.593Z,101548.31
2023-01-21T04:12:19.198Z,101551.75
2023-01-21T04:14:45.800Z,101555.16
2023-01-21T04:17:12.321Z,101554.19
2023-01-21T04:19:38.876Z,101558.41
2023-01-21T04:22:05.515Z,101560.03
2023-01-21T04:24:34.501Z,101567.59
2023-01-21T04:27:01.261Z,101570.03
2023-01-21T04:29:27.798Z,101569.16
2023-01-21T04:31:54.509Z,101575.78
2023-01-21T04:34:21.135Z,101578.03
2023-01-21T04:36:47.795Z,101580.47
2023-01-21T04:39:14.438Z,101572.84
2023-01-21T04:41:41.065Z,101572.94
2023-01-21T04:44:07.753Z,101578.78
2023-01-21T04:46:34.307Z,101573.63
2023-01-21T04:49:00.923Z,101578.50
2023-01-21T04:51:27.911Z,101581.72
2023-01-21T04:53:54.481Z,101582.47
2023-01-21T04:56:21.035Z,101590.00
2023-01-21T04:58:47.583Z,101589.91
2023-01-21T05:01:14.223Z,101595.75
2023-01-21T05:03:40.812Z,101591.34
2023-01-21T05:06:07.684Z,101589.38
2023-01-21T05:08:34.231Z,101597.56
2023-01-21T05:11:00.908Z,101596.47
2023-01-21T05:13:27.504Z,101599.56
2023-01-21T05:15:54.274Z,101597.69
2023-01-21T05:18:20.845Z,101603.34
2023-01-21T05:20:47.419Z,101595.59
2023-01-21T05:23:13.977Z,101599.03
2023-01-21T05:25:40.529Z,101606.78
2023-01-21T05:28:07.195Z,101610.19
2023-01-21T05:30:33.762Z,101612.63
2023-01-21T05:33:00.356Z,101618.38
2023-01-21T05:35:26.913Z,101622.59
2023-01-21T05:37:53.593Z,101620.78
2023-01-21T05:40:20.419Z,101627.44
2023-01-21T05:42:47.456Z,101644.22
2023-01-21T05:45:14.827Z,101639.94
2023-01-21T05:47:41.488Z,101642.25
2023-01-21T05:50:08.879Z,101629.53
2023-01-21T05:52:35.775Z,101636.53
2023-01-21T05:55:03.147Z,101635.63
2023-01-21T05:57:30.445Z,101641.63
2023-01-21T05:59:57.288Z,101647.34
2023-01-21T06:02:25.146Z,101648.78
2023-01-21T06:04:51.696Z,101653.53
2023-01-21T06:07:18.741Z,101656.63
2023-01-21T06:09:45.329Z,101653.00
2023-01-21T06:12:11.865Z,101657.97
2023-01-21T06:14:38.447Z,101662.16
2023-01-21T06:17:05.072Z,101671.44
2023-01-21T06:19:31.825Z,101669.66
2023-01-21T06:21:58.363Z,101669.44
2023-01-21T06:24:24.963Z,101682.69
2023-01-21T06:26:53.265Z,101685.78
2023-01-21T06:29:19.844Z,101683.13
2023-01-21T06:31:46.620Z,101679.38
2023-01-21T06:34:13.507Z,101680.81
2023-01-21T06:36:42.697Z,101689.06
2023-01-21T06:39:11.128Z,101687.19
2023-01-21T06:41:37.954Z,101686.97
2023-01-21T06:44:05.299Z,101688.38
2023-01-21T06:46:32.023Z,101697.66
2023-01-21T06:48:58.680Z,101691.47
2023-01-21T06:51:25.517Z,101701.50
2023-01-21T06:53:52.937Z,101697.22
2023-01-21T06:56:19.687Z,101703.06
2023-01-21T06:58:46.319Z,101708.91
2023-01-21T07:01:13.071Z,101712.22
2023-01-21T07:03:39.631Z,101713.75
2023-01-21T07:06:06.549Z,101711.97
2023-01-21T07:08:33.118Z,101723.91
2023-01-21T07:10:59.656Z,101717.72
2023-01-21T07:13:26.259Z,101721.69
2023-01-21T07:15:52.863Z,101719.69
2023-01-21T07:18:19.434Z,101732.16
2023-01-21T07:20:45.969Z,101724.28
2023-01-21T07:23:12.509Z,101732.56
2023-01-21T07:25:39.090Z,101729.13
2023-01-21T07:28:05.637Z,101741.03
2023-01-21T07:30:32.160Z,101739.28
2023-01-21T07:32:58.719Z,101748.44
2023-01-21T07:35:25.353Z,101750.75
2023-01-21T07:37:51.965Z,101752.25
2023-01-21T07:40:18.560Z,101751.28
2023-01-21T07:42:50.996Z,101749.47
2023-01-21T07:45:17.834Z,101752.91
2023-01-21T07:47:44.481Z,101755.34
2023-01-21T07:50:11.405Z,101760.41
2023-01-21T07:52:37.992Z,101765.47
2023-01-21T07:55:05.029Z,101772.25
2023-01-21T07:57:31.673Z,101774.66
2023-01-21T07:59:58.273Z,101777.06
2023-01-21T08:02:25.379Z,101785.34
2023-01-21T08:04:52.014Z,101782.56
2023-01-21T08:07:18.684Z,101788.41
2023-01-21T08:09:45.354Z,101787.63
2023-01-21T08:12:11.907Z,101791.94
2023-01-21T08:14:39.532Z,101795.50
2023-01-21T08:17:06.106Z,101794.84
2023-01-21T08:19:32.736Z,101799.25
2023-01-21T08:21:59.282Z,101807.38
2023-01-21T08:24:25.814Z,101816.75
2023-01-21T08:26:52.397Z,101808.09
2023-01-21T08:29:18.942Z,101814.84
2023-01-21T08:31:45.584Z,101823.34
2023-01-21T08:34:12.240Z,101817.41
2023-01-21T08:36:39.842Z,101827.44
2023-01-21T08:39:06.567Z,101821.56
2023-01-21T08:41:33.640Z,101826.91
2023-01-21T08:44:00.471Z,101830.91
2023-01-21T08:46:27.712Z,101831.22
2023-01-21T08:48:54.315Z,101840.13
2023-01-21T08:51:20.926Z,101846.63
2023-01-21T08:53:49.465Z,101831.75
2023-01-21T08:56:16.840Z,101832.72
2023-01-21T08:58:43.646Z,101839.38
2023-01-21T09:01:12.227Z,101845.75
2023-01-21T09:03:38.920Z,101851.47
2023-01-21T09:06:06.735Z,101852.69
2023-01-21T09:08:33.325Z,101857.19
2023-01-21T09:11:01.668Z,101855.06
2023-01-21T09:13:30.620Z,101860.09
2023-01-21T09:15:57.698Z,101857.22
2023-01-21T09:18:24.822Z,101854.94
2023-01-21T09:20:51.498Z,101864.19
2023-01-21T09:23:26.010Z,101865.56
2023-01-21T09:28:30.190Z,101861.59
2023-01-21T09:30:58.609Z,101860.56
2023-01-21T09:33:25.813Z,101860.47
2023-01-21T09:35:55.175Z,101868.06
2023-01-21T09:38:21.781Z,101867.34
2023-01-21T09:40:48.816Z,101876.34
2023-01-21T09:43:23.172Z,101872.25
2023-01-21T09:45:53.558Z,101880.50
2023-01-21T09:48:26.853Z,101876.59
2023-01-21T09:50:54.363Z,101873.06
2023-01-21T09:53:32.029Z,101878.16
2023-01-21T09:56:02.262Z,101884.94
2023-01-21T10:04:02.752Z,101894.28
2023-01-21T10:06:54.908Z,101899.06
2023-01-21T10:17:53.586Z,101904.44
2023-01-21T10:23:27.555Z,101913.25
2023-01-21T10:25:56.375Z,101901.41
2023-01-21T10:28:26.782Z,101908.50
2023-01-21T10:30:55.462Z,101912.94
2023-01-21T10:33:24.556Z,101917.28
2023-01-21T10:36:05.387Z,101907.66
2023-01-21T10:38:41.705Z,101918.97
2023-01-21T10:41:19.162Z,101916.38
2023-01-21T10:52:05.758Z,101924.75
2023-01-21T10:54:47.748Z,101918.06
2023-01-21T11:00:19.884Z,101921.34
2023-01-21T11:02:52.202Z,101924.59
2023-01-21T11:05:19.914Z,101916.44
2023-01-21T11:07:48.281Z,101916.25
2023-01-21T11:10:22.267Z,101917.97
2023-01-21T11:12:49.594Z,101917.94
2023-01-21T11:15:19.767Z,101911.09
2023-01-21T11:17:49.553Z,101917.16
2023-01-21T11:20:22.528Z,101904.16
2023-01-21T11:22:50.348Z,101908.41
2023-01-21T11:25:41.064Z,101906.31
2023-01-21T11:28:26.528Z,101907.88
2023-01-21T11:31:07.127Z,101908.97
2023-01-21T11:33:35.141Z,101902.88
2023-01-21T11:36:12.453Z,101898.13
2023-01-21T11:38:39.440Z,101897.53
2023-01-21T11:41:16.355Z,101907.06
2023-01-21T11:43:48.731Z,101900.50
2023-01-21T11:51:47.515Z,101901.66
2023-01-21T11:59:40.937Z,101895.91
2023-01-21T12:04:49.807Z,101901.00
2023-01-21T12:07:36.226Z,101907.88
2023-01-21T12:26:50.896Z,101889.22
2023-01-21T12:32:05.140Z,101885.81
2023-01-21T12:37:31.235Z,101879.63
2023-01-21T12:40:01.896Z,101886.19
2023-01-21T12:42:34.973Z,101887.63
2023-01-21T12:45:12.943Z,101876.16
2023-01-21T12:58:33.265Z,101874.59
2023-01-21T13:01:06.215Z,101870.19
2023-01-21T13:06:18.049Z,101863.72
2023-01-21T13:09:07.879Z,101869.31
2023-01-21T13:11:47.542Z,101863.88
2023-01-21T13:14:23.632Z,101854.34
2023-01-21T13:16:57.554Z,101858.59
2023-01-21T13:19:24.145Z,101864.31
2023-01-21T13:22:03.372Z,101859.03
2023-01-21T13:27:22.299Z,101862.69
2023-01-21T13:41:13.126Z,101858.66
2023-01-21T13:43:59.095Z,101866.00
2023-01-21T14:09:01.440Z,101863.28
2023-01-21T14:25:37.025Z,101870.28
2023-01-21T14:30:50.555Z,101887.09
2023-01-21T14:33:23.696Z,101884.44
2023-01-21T14:36:14.697Z,101880.75
2023-01-21T14:41:24.265Z,101879.00
2023-01-21T14:43:52.604Z,101877.09
2023-01-21T14:46:34.870Z,101883.63
2023-01-21T14:49:07.801Z,101881.88
2023-01-21T14:51:37.408Z,101881.63
2023-01-21T14:54:16.000Z,101891.66
2023-01-21T14:56:54.537Z,101902.63
2023-01-21T14:59:41.981Z,101898.03
2023-01-21T15:05:03.973Z,101901.22
2023-01-21T15:07:35.574Z,101904.41
2023-01-21T15:10:13.722Z,101901.69
2023-01-21T15:12:48.683Z,101903.19
2023-01-21T15:15:39.909Z,101901.97
2023-01-21T15:28:47.076Z,101919.13
2023-01-21T15:31:43.134Z,101920.03
2023-01-21T15:34:16.244Z,101918.09
2023-01-21T15:36:47.313Z,101914.38
2023-01-21T15:39:17.664Z,101915.63
2023-01-21T15:50:20.982Z,101912.47
2023-01-21T15:53:28.526Z,101914.59
2023-01-21T15:59:26.166Z,101919.69
2023-01-21T16:13:24.288Z,101929.00
2023-01-21T16:21:08.002Z,101938.31
2023-01-21T16:23:40.405Z,101949.97
2023-01-21T16:26:07.096Z,101951.16
2023-01-21T16:28:44.475Z,101949.91
2023-01-21T16:31:11.212Z,101955.53
2023-01-21T16:33:38.011Z,101950.94
2023-01-21T16:36:07.714Z,101949.63
2023-01-21T16:38:36.862Z,101954.38
2023-01-21T16:46:26.694Z,101963.44
2023-01-21T16:48:57.472Z,101970.06
2023-01-21T16:51:28.856Z,101966.19
2023-01-21T16:54:24.172Z,101969.72
2023-01-21T16:56:58.884Z,101971.22
2023-01-21T16:59:29.998Z,101961.47
2023-01-21T17:01:59.220Z,101961.06
2023-01-21T17:04:25.927Z,101959.91
2023-01-21T17:06:54.049Z,101965.59
2023-01-21T17:09:27.522Z,101963.41
2023-01-21T17:11:55.657Z,101963.22
2023-01-21T17:14:26.333Z,101968.13
2023-01-21T17:16:55.936Z,101961.81
2023-01-21T17:19:34.034Z,101967.50
2023-01-21T17:22:11.936Z,101970.66
2023-01-21T17:24:44.051Z,101970.44
2023-01-21T17:27:16.514Z,101970.13
2023-01-21T17:29:45.442Z,101973.34
2023-01-21T17:32:32.729Z,101963.63
2023-01-21T17:35:19.441Z,101965.00
2023-01-21T17:37:57.711Z,101965.69
2023-01-21T17:43:25.606Z,101962.41
2023-01-21T17:45:55.134Z,101966.88
2023-01-21T17:48:27.707Z,101968.81
2023-01-21T17:50:55.826Z,101970.13
2023-01-21T17:53:26.794Z,101965.50
2023-01-21T17:55:58.554Z,101968.75
2023-01-21T18:01:10.692Z,101965.78
2023-01-21T18:03:37.492Z,101968.22
2023-01-21T18:06:06.607Z,101979.13
2023-01-21T18:08:33.280Z,101979.75
2023-01-21T18:10:59.900Z,101977.78
2023-01-21T18:13:27.042Z,101975.91
2023-01-21T18:15:54.238Z,101973.13
2023-01-21T18:18:25.235Z,101981.34
2023-01-21T18:20:52.120Z,101984.38
2023-01-21T18:23:19.853Z,101985.84
2023-01-21T18:25:50.278Z,101983.84
2023-01-21T18:28:19.648Z,101977.63
2023-01-21T18:30:47.120Z,101982.44
2023-01-21T18:33:14.073Z,101983.00
2023-01-21T18:35:44.183Z,101978.47
2023-01-21T18:38:13.035Z,101984.09
2023-01-21T18:40:40.414Z,101981.34
2023-01-21T18:43:07.574Z,101980.34
2023-01-21T18:45:34.194Z,101987.00
2023-01-21T18:48:00.923Z,101986.78
2023-01-21T18:50:29.628Z,101995.22
2023-01-21T18:52:56.294Z,101992.66
2023-01-21T18:55:26.805Z,101993.41
2023-01-21T18:57:55.702Z,101994.19
2023-01-21T19:00:26.387Z,101988.09
2023-01-21T19:02:55.114Z,101984.56
2023-01-21T19:05:24.599Z,101982.78
2023-01-21T19:07:51.146Z,101983.56
2023-01-21T19:10:20.567Z,101985.22
2023-01-21T19:12:47.854Z,101996.97
2023-01-21T19:15:17.048Z,101994.31
2023-01-21T19:17:44.312Z,101999.19
2023-01-21T19:20:28.678Z,102000.50
2023-01-21T19:22:56.199Z,101996.97
2023-01-21T19:25:26.053Z,101999.41
2023-01-21T19:27:55.937Z,102005.19
2023-01-21T19:30:27.612Z,102004.94
2023-01-21T19:32:55.450Z,102008.16
2023-01-21T19:35:31.226Z,101998.59
2023-01-21T19:37:58.481Z,102005.16
2023-01-21T19:40:27.436Z,102016.00
2023-01-21T19:42:54.301Z,102000.50
2023-01-21T19:45:21.291Z,102005.59
2023-01-21T19:47:51.107Z,102009.78
2023-01-21T19:50:21.996Z,102008.69
2023-01-21T19:52:50.160Z,102004.91
2023-01-21T19:55:19.588Z,102001.91
2023-01-21T19:57:48.389Z,102001.44
2023-01-21T20:03:00.163Z,102014.41
2023-01-21T20:05:29.137Z,102005.75
2023-01-21T20:07:55.980Z,102006.41
2023-01-21T20:10:25.203Z,102009.50
2023-01-21T20:12:52.693Z,102009.25
2023-01-21T20:15:23.750Z,102001.50
2023-01-21T20:17:53.943Z,102010.69
2023-01-21T20:20:24.680Z,102007.00
2023-01-21T20:22:51.459Z,102010.88
2023-01-21T20:25:21.109Z,102008.34
2023-01-21T20:27:52.459Z,102006.56
2023-01-21T20:30:21.984Z,102000.34
2023-01-21T20:32:49.168Z,102008.75
2023-01-21T20:35:17.225Z,102015.50
2023-01-21T20:37:47.707Z,102026.44
2023-01-21T20:40:19.361Z,102018.69
2023-01-21T20:42:47.523Z,102020.13
2023-01-21T20:45:16.347Z,102023.28
2023-01-21T20:47:50.203Z,102018.00
2023-01-21T20:52:55.250Z,102034.53
2023-01-21T20:55:24.355Z,102031.00
2023-01-21T20:57:51.335Z,102029.13
2023-01-21T21:00:28.653Z,102028.09
2023-01-21T21:02:55.640Z,102029.41
2023-01-21T21:05:23.867Z,102035.25
2023-01-21T21:07:50.852Z,102043.66
2023-01-21T21:10:29.507Z,102052.81
2023-01-21T21:12:56.328Z,102048.59
2023-01-21T21:15:22.928Z,102047.75
2023-01-21T21:17:49.516Z,102063.22
2023-01-21T21:20:19.239Z,102053.28
2023-01-21T21:22:46.330Z,102053.53
2023-01-21T21:25:15.354Z,102048.44
2023-01-21T21:27:42.784Z,102053.28
2023-01-21T21:30:13.354Z,102050.00
2023-01-21T21:32:39.956Z,102053.53
2023-01-21T21:35:19.744Z,102053.53
2023-01-21T21:37:46.421Z,102048.44
2023-01-21T21:40:13.175Z,102050.22
2023-01-21T21:42:59.679Z,102040.81
2023-01-21T21:45:26.225Z,102040.69
2023-01-21T21:48:12.838Z,102039.81
2023-01-21T21:50:39.357Z,102050.75
2023-01-21T21:53:05.868Z,102045.41
2023-01-21T21:55:34.053Z,102045.31
2023-01-21T21:58:00.654Z,102050.28
2023-01-21T22:00:27.219Z,102040.84
2023-01-21T22:02:59.751Z,102044.84
2023-01-21T22:05:26.491Z,102055.66
2023-01-21T22:07:53.089Z,102053.88
2023-01-21T22:10:19.765Z,102047.91
2023-01-21T22:12:46.297Z,102042.81
2023-01-21T22:15:12.945Z,102047.00
2023-01-21T22:17:39.518Z,102043.47
2023-01-21T22:20:07.023Z,102042.44
2023-01-21T22:22:33.562Z,102043.22
2023-01-21T22:25:00.108Z,102040.81
2023-01-21T22:27:26.637Z,102039.91
2023-01-21T22:29:53.207Z,102039.91
2023-01-21T22:32:19.777Z,102041.66
2023-01-21T22:34:46.305Z,102046.75
2023-01-21T22:37:12.862Z,102050.31
2023-01-21T22:39:39.408Z,102047.00
2023-01-21T22:42:06.049Z,102053.75
2023-01-21T22:44:32.619Z,102053.88
2023-01-21T22:46:59.199Z,102052.09
2023-01-21T22:49:25.827Z,102045.47
2023-01-21T22:51:52.377Z,102044.72
2023-01-21T22:54:18.910Z,102049.00
2023-01-21T22:56:52.465Z,102047.38
2023-01-21T22:59:20.122Z,102043.94
2023-01-21T23:01:48.735Z,102037.31
2023-01-21T23:04:17.368Z,102040.66
2023-01-21T23:06:44.846Z,102038.09
2023-01-21T23:09:15.839Z,102047.50
2023-01-21T23:11:45.022Z,102036.09
2023-01-21T23:14:12.621Z,102036.59
2023-01-21T23:16:39.832Z,102032.03
2023-01-21T23:19:06.473Z,102026.22
2023-01-21T23:21:33.063Z,102030.63
2023-01-21T23:23:59.658Z,102024.66
2023-01-21T23:26:26.220Z,102026.66
2023-01-21T23:28:55.838Z,102026.78
2023-01-21T23:31:23.857Z,102019.16
2023-01-21T23:33:52.201Z,102021.59
2023-01-21T23:36:19.398Z,102022.34
2023-01-21T23:38:46.061Z,102020.72
2023-01-21T23:41:16.971Z,102016.50
2023-01-21T23:43:43.764Z,102013.63
2023-01-21T23:46:16.293Z,102012.72
2023-01-21T23:48:43.172Z,102003.44
2023-01-21T23:51:12.938Z,102004.31
2023-01-21T23:53:39.560Z,102008.88
2023-01-21T23:56:09.852Z,102004.56
2023-01-21T23:58:36.732Z,102002.78
